OTBD Airport Information

Runway Information
Runway 15 Length 15000 ft width 151 ft
Elevation 35 ft Threshold 2460 ft Heading 158
Runway 33 Length 15000 ft Width 151 ft
Elevation 25 ft Threshold 0 ft Heading 338
Airport Frequencies
Type APP Name APP Frequency 121.1 MHZ
Type ATIS Name ATIS Frequency 126.45 MHZ
Type GND Name GND Frequency 118.275 MHZ
Type OPS Name KINGFISH N Frequency 139.5 MHZ
Type TWR Name TWR Frequency 118.9 MHZ
Airport Navaids
Type VOR-DME Name Doha Frequency 112400 KHZ
Type NDB Name Wk Frequency 323 KHZ
Airport Weather Information & NOTAM
ADDS - METARS form results

(1037 UTC 22 February 2019)
Data provider http://aviationweather.gov/metar/data/
 
METAR text: OTBD 221030Z AUTO 06006KT 010V090 CAVOK 20/10 Q1017 NOSIG
Conditions at: OTBD (DOHA INTL AIRPOR, QA) observed 1030 UTC 22 February 2019
Temperature: 20.0°C (68°F)
Dewpoint: 10.0°C (50°F) [RH = 53%]
Pressure (altimeter): 30.03 inches Hg (1017.0 mb)
Winds: from the ENE (60 degrees) at 7 MPH (6 knots; 3.1 m/s)
Visibility: 6 or more miles (10+ km)
Ceiling: ceiling and visibility are OK
Clouds: unknown
Weather: no significant weather observed at this time

METAR text: OTBD 221000Z AUTO 06006KT 010V100 CAVOK 21/10 Q1018 NOSIG
Conditions at: OTBD (DOHA INTL AIRPOR, QA) observed 1000 UTC 22 February 2019
Temperature: 21.0°C (70°F)
Dewpoint: 10.0°C (50°F) [RH = 49%]
Pressure (altimeter): 30.06 inches Hg (1018.0 mb)
Winds: from the ENE (60 degrees) at 7 MPH (6 knots; 3.1 m/s)
Visibility: 6 or more miles (10+ km)
Ceiling: ceiling and visibility are OK
Clouds: unknown
Weather: no significant weather observed at this time

Forecast for: OTBD (DOHA INTL AIRPOR, QA)
Text: TAF OTBD 220500Z 2206/2312 09007KT 9000 NSC
Forecast period: 0600 UTC 22 February 2019 to 1200 UTC 23 February 2019
Forecast type: FROM: standard forecast or significant change
Winds: from the E (90 degrees) at 8 MPH (7 knots; 3.6 m/s)
Visibility: 6 miles (9 km)
Ceiling: unknown
Clouds: missing
Weather: no significant weather forecast for this period
Text: TEMPO 2206/2212 VRB02KT
Forecast period: 0600 to 1200 UTC 22 February 2019
Forecast type: TEMPORARY: The following changes expected for less than half the time period
Winds: variable direction winds at 2 MPH (2 knots; 1.0 m/s)
Visibility: missing
Ceiling: unknown
Clouds: missing
Weather: no significant weather forecast for this period
Text: PROB30
Forecast period: 1800 UTC 22 February 2019 to 0000 UTC 23 February 2019
Forecast type: TEMPORARY: The following changes expected for less than half the time period
Visibility: 4 miles (6 km)
Ceiling: 12000 feet AGL
Clouds: few clouds at 3000 feet AGL
broken clouds at 12000 feet AGL
Weather: -RA  (light rain)